sensor_id;sensor_type;location;lat;lon;timestamp;pressure;altitude;pressure_sealevel;temperature;humidity
38038;BME280;23843;51.320;12.340;2022-11-25T05:31:28;100397.28;;;3.59;100.00
38038;BME280;23843;51.320;12.340;2022-11-25T05:33:53;100395.63;;;3.55;100.00
38038;BME280;23843;51.320;12.340;2022-11-25T05:36:18;100395.66;;;3.53;100.00
38038;BME280;23843;51.320;12.340;2022-11-25T05:38:44;100399.16;;;3.54;100.00
38038;BME280;23843;51.320;12.340;2022-11-25T05:41:10;100398.34;;;3.52;100.00
38038;BME280;23843;51.320;12.340;2022-11-25T05:43:36;100391.47;;;3.46;100.00
38038;BME280;23843;51.320;12.340;2022-11-25T05:46:03;100402.88;;;3.43;100.00
38038;BME280;23843;51.320;12.340;2022-11-25T05:48:30;100402.97;;;3.39;100.00
38038;BME280;23843;51.320;12.340;2022-11-25T05:50:58;100399.50;;;3.38;100.00
38038;BME280;23843;51.320;12.340;2022-11-25T05:53:23;100402.19;;;3.37;100.00
38038;BME280;23843;51.320;12.340;2022-11-25T05:55:53;100395.25;;;3.34;100.00
38038;BME280;23843;51.320;12.340;2022-11-25T05:58:18;100408.41;;;3.31;100.00
38038;BME280;23843;51.320;12.340;2022-11-25T06:00:44;100405.00;;;3.29;100.00
38038;BME280;23843;51.320;12.340;2022-11-25T06:03:09;100400.63;;;3.28;100.00
38038;BME280;23843;51.320;12.340;2022-11-25T06:05:36;100400.72;;;3.24;100.00
38038;BME280;23843;51.320;12.340;2022-11-25T06:08:02;100397.25;;;3.25;100.00
38038;BME280;23843;51.320;12.340;2022-11-25T06:10:27;100392.03;;;3.23;100.00
38038;BME280;23843;51.320;12.340;2022-11-25T06:12:52;100394.72;;;3.20;100.00
38038;BME280;23843;51.320;12.340;2022-11-25T06:15:18;100398.22;;;3.19;100.00
38038;BME280;23843;51.320;12.340;2022-11-25T06:17:43;100403.44;;;3.20;100.00
38038;BME280;23843;51.320;12.340;2022-11-25T06:20:09;100410.44;;;3.20;100.00
38038;BME280;23843;51.320;12.340;2022-11-25T06:22:36;100413.94;;;3.19;100.00
38038;BME280;23843;51.320;12.340;2022-11-25T06:25:02;100413.94;;;3.19;100.00
38038;BME280;23843;51.320;12.340;2022-11-25T06:27:28;100418.31;;;3.17;100.00
38038;BME280;23843;51.320;12.340;2022-11-25T06:29:53;100419.16;;;3.19;100.00
38038;BME280;23843;51.320;12.340;2022-11-25T06:32:19;100420.91;;;3.20;100.00
38038;BME280;23843;51.320;12.340;2022-11-25T06:34:44;100418.31;;;3.18;100.00
38038;BME280;23843;51.320;12.340;2022-11-25T06:37:09;100421.84;;;3.17;100.00
38038;BME280;23843;51.320;12.340;2022-11-25T06:39:36;100420.94;;;3.17;100.00
38038;BME280;23843;51.320;12.340;2022-11-25T06:42:02;100427.00;;;3.20;100.00
38038;BME280;23843;51.320;12.340;2022-11-25T06:44:27;100421.75;;;3.20;100.00
38038;BME280;23843;51.320;12.340;2022-11-25T06:46:53;100424.34;;;3.22;100.00
38038;BME280;23843;51.320;12.340;2022-11-25T06:49:18;100434.75;;;3.25;100.00
38038;BME280;23843;51.320;12.340;2022-11-25T06:51:43;100432.06;;;3.27;100.00
38038;BME280;23843;51.320;12.340;2022-11-25T06:54:09;100432.16;;;3.24;100.00
38038;BME280;23843;51.320;12.340;2022-11-25T06:56:36;100425.16;;;3.24;100.00
38038;BME280;23843;51.320;12.340;2022-11-25T06:59:03;100419.88;;;3.27;100.00
38038;BME280;23843;51.320;12.340;2022-11-25T07:01:29;100428.50;;;3.31;100.00
38038;BME280;23843;51.320;12.340;2022-11-25T07:03:58;100429.31;;;3.34;100.00
38038;BME280;23843;51.320;12.340;2022-11-25T07:06:24;100434.53;;;3.34;100.00
38038;BME280;23843;51.320;12.340;2022-11-25T07:08:50;100432.63;;;3.41;100.00
38038;BME280;23843;51.320;12.340;2022-11-25T07:11:17;100432.56;;;3.44;100.00
38038;BME280;23843;51.320;12.340;2022-11-25T07:13:45;100435.97;;;3.48;100.00
38038;BME280;23843;51.320;12.340;2022-11-25T07:16:12;100430.81;;;3.45;100.00
38038;BME280;23843;51.320;12.340;2022-11-25T07:18:38;100441.19;;;3.48;100.00
38038;BME280;23843;51.320;12.340;2022-11-25T07:21:05;100439.50;;;3.47;100.00
38038;BME280;23843;51.320;12.340;2022-11-25T07:23:31;100443.72;;;3.52;100.00
38038;BME280;23843;51.320;12.340;2022-11-25T07:26:00;100434.81;;;3.59;100.00
38038;BME280;23843;51.320;12.340;2022-11-25T07:28:26;100448.63;;;3.66;100.00
38038;BME280;23843;51.320;12.340;2022-11-25T07:30:53;100451.00;;;3.75;100.00
38038;BME280;23843;51.320;12.340;2022-11-25T07:36:01;100449.66;;;3.95;100.00
38038;BME280;23843;51.320;12.340;2022-11-25T07:38:26;100445.78;;;4.10;100.00
38038;BME280;23843;51.320;12.340;2022-11-25T07:40:52;100448.91;;;4.24;100.00
38038;BME280;23843;51.320;12.340;2022-11-25T07:43:17;100445.69;;;4.45;100.00
38038;BME280;23843;51.320;12.340;2022-11-25T07:45:42;100446.88;;;4.66;100.00
38038;BME280;23843;51.320;12.340;2022-11-25T07:48:10;100448.47;;;5.02;100.00
38038;BME280;23843;51.320;12.340;2022-11-25T07:50:35;100447.78;;;5.25;100.00
38038;BME280;23843;51.320;12.340;2022-11-25T07:53:01;100446.88;;;5.26;100.00
38038;BME280;23843;51.320;12.340;2022-11-25T07:55:26;100454.59;;;5.30;100.00
38038;BME280;23843;51.320;12.340;2022-11-25T07:57:51;100451.22;;;5.27;100.00
38038;BME280;23843;51.320;12.340;2022-11-25T08:00:18;100458.22;;;5.26;100.00
38038;BME280;23843;51.320;12.340;2022-11-25T08:02:43;100453.94;;;5.24;100.00
38038;BME280;23843;51.320;12.340;2022-11-25T08:05:10;100454.72;;;5.27;100.00
38038;BME280;23843;51.320;12.340;2022-11-25T08:07:35;100458.22;;;5.26;100.00
38038;BME280;23843;51.320;12.340;2022-11-25T08:10:01;100452.44;;;5.43;100.00
38038;BME280;23843;51.320;12.340;2022-11-25T08:12:26;100452.38;;;6.01;100.00
38038;BME280;23843;51.320;12.340;2022-11-25T08:14:52;100456.94;;;6.46;99.57
38038;BME280;23843;51.320;12.340;2022-11-25T08:17:17;100456.34;;;6.63;98.58
38038;BME280;23843;51.320;12.340;2022-11-25T08:19:42;100462.19;;;7.18;96.22
38038;BME280;23843;51.320;12.340;2022-11-25T08:22:09;100450.88;;;7.60;97.52
38038;BME280;23843;51.320;12.340;2022-11-25T08:24:35;100455.41;;;7.79;92.22
38038;BME280;23843;51.320;12.340;2022-11-25T08:27:00;100447.44;;;7.58;89.32
38038;BME280;23843;51.320;12.340;2022-11-25T08:29:25;100453.09;;;7.49;90.20
38038;BME280;23843;51.320;12.340;2022-11-25T08:31:51;100450.63;;;7.22;90.73
38038;BME280;23843;51.320;12.340;2022-11-25T08:34:18;100463.69;;;7.02;91.14
38038;BME280;23843;51.320;12.340;2022-11-25T08:36:43;100459.28;;;7.02;92.75
38038;BME280;23843;51.320;12.340;2022-11-25T08:39:10;100454.63;;;7.33;93.48
38038;BME280;23843;51.320;12.340;2022-11-25T08:41:36;100458.19;;;7.76;92.10
38038;BME280;23843;51.320;12.340;2022-11-25T08:44:04;100460.19;;;7.91;91.38
38038;BME280;23843;51.320;12.340;2022-11-25T08:46:31;100448.38;;;8.00;88.88
38038;BME280;23843;51.320;12.340;2022-11-25T08:48:57;100456.22;;;8.01;91.52
38038;BME280;23843;51.320;12.340;2022-11-25T08:51:24;100454.28;;;7.84;88.96
38038;BME280;23843;51.320;12.340;2022-11-25T08:53:50;100456.22;;;7.81;89.56
38038;BME280;23843;51.320;12.340;2022-11-25T08:56:18;100449.63;;;7.91;91.54
38038;BME280;23843;51.320;12.340;2022-11-25T08:58:44;100457.09;;;8.02;92.03
38038;BME280;23843;51.320;12.340;2022-11-25T09:01:10;100459.66;;;8.03;90.63
38038;BME280;23843;51.320;12.340;2022-11-25T09:03:38;100458.44;;;7.90;90.08
38038;BME280;23843;51.320;12.340;2022-11-25T09:06:05;100462.28;;;7.83;89.44
38038;BME280;23843;51.320;12.340;2022-11-25T09:08:32;100462.16;;;7.86;91.41
38038;BME280;23843;51.320;12.340;2022-11-25T09:10:57;100460.56;;;7.82;90.49
38038;BME280;23843;51.320;12.340;2022-11-25T09:13:25;100457.00;;;7.83;91.70
38038;BME280;23843;51.320;12.340;2022-11-25T09:15:51;100469.72;;;7.73;90.95
38038;BME280;23843;51.320;12.340;2022-11-25T09:18:16;100464.13;;;7.81;92.82
38038;BME280;23843;51.320;12.340;2022-11-25T09:20:42;100473.69;;;7.83;91.95
38038;BME280;23843;51.320;12.340;2022-11-25T09:23:07;100469.94;;;7.89;92.43
38038;BME280;23843;51.320;12.340;2022-11-25T09:25:33;100475.69;;;7.99;92.82
38038;BME280;23843;51.320;12.340;2022-11-25T09:27:59;100472.06;;;8.01;91.04
38038;BME280;23843;51.320;12.340;2022-11-25T09:30:26;100470.41;;;7.99;91.55
38038;BME280;23843;51.320;12.340;2022-11-25T09:32:54;100472.81;;;8.05;91.62
38038;BME280;23843;51.320;12.340;2022-11-25T09:35:20;100469.13;;;7.87;90.41
38038;BME280;23843;51.320;12.340;2022-11-25T09:37:46;100467.94;;;7.74;90.66
38038;BME280;23843;51.320;12.340;2022-11-25T09:40:17;100465.66;;;7.64;91.88
38038;BME280;23843;51.320;12.340;2022-11-25T09:42:48;100471.97;;;7.60;93.34
38038;BME280;23843;51.320;12.340;2022-11-25T09:45:19;100473.03;;;7.56;93.27
38038;BME280;23843;51.320;12.340;2022-11-25T09:47:52;100476.38;;;7.60;94.57
38038;BME280;23843;51.320;12.340;2022-11-25T09:50:29;100471.72;;;7.66;94.43
38038;BME280;23843;51.320;12.340;2022-11-25T09:53:04;100469.16;;;7.65;93.45
38038;BME280;23843;51.320;12.340;2022-11-25T09:55:36;100473.78;;;7.58;93.54
38038;BME280;23843;51.320;12.340;2022-11-25T09:58:15;100467.56;;;7.61;94.47
38038;BME280;23843;51.320;12.340;2022-11-25T10:00:46;100466.16;;;7.74;94.28
38038;BME280;23843;51.320;12.340;2022-11-25T10:03:18;100461.06;;;7.69;92.98
38038;BME280;23843;51.320;12.340;2022-11-25T10:05:53;100463.88;;;7.65;93.61
38038;BME280;23843;51.320;12.340;2022-11-25T10:08:22;100468.25;;;7.66;93.66
38038;BME280;23843;51.320;12.340;2022-11-25T10:10:54;100458.09;;;7.77;94.13
38038;BME280;23843;51.320;12.340;2022-11-25T10:13:31;100455.03;;;7.88;94.14
38038;BME280;23843;51.320;12.340;2022-11-25T10:16:04;100467.44;;;8.06;94.27
38038;BME280;23843;51.320;12.340;2022-11-25T10:18:37;100458.75;;;8.25;92.15
38038;BME280;23843;51.320;12.340;2022-11-25T10:21:03;100465.91;;;8.43;93.66
38038;BME280;23843;51.320;12.340;2022-11-25T10:23:31;100464.13;;;8.64;91.58
38038;BME280;23843;51.320;12.340;2022-11-25T10:26:00;100460.28;;;8.71;90.06
38038;BME280;23843;51.320;12.340;2022-11-25T10:28:31;100467.22;;;8.74;89.11
38038;BME280;23843;51.320;12.340;2022-11-25T10:31:00;100457.59;;;8.92;91.23
38038;BME280;23843;51.320;12.340;2022-11-25T10:33:31;100462.63;;;9.17;92.43
38038;BME280;23843;51.320;12.340;2022-11-25T10:35:59;100469.31;;;9.24;90.36
38038;BME280;23843;51.320;12.340;2022-11-25T10:38:35;100468.09;;;9.31;91.03
38038;BME280;23843;51.320;12.340;2022-11-25T10:41:03;100469.41;;;9.41;90.22
38038;BME280;23843;51.320;12.340;2022-11-25T10:43:29;100466.66;;;9.43;89.92
38038;BME280;23843;51.320;12.340;2022-11-25T10:45:59;100464.81;;;9.45;89.30
38038;BME280;23843;51.320;12.340;2022-11-25T10:48:44;100464.06;;;9.60;88.42
38038;BME280;23843;51.320;12.340;2022-11-25T10:51:25;100459.25;;;9.51;85.79
38038;BME280;23843;51.320;12.340;2022-11-25T10:54:14;100463.53;;;9.54;85.84
38038;BME280;23843;51.320;12.340;2022-11-25T10:56:58;100454.78;;;9.71;88.79
38038;BME280;23843;51.320;12.340;2022-11-25T10:59:27;100445.22;;;9.85;88.78
38038;BME280;23843;51.320;12.340;2022-11-25T11:02:13;100450.19;;;9.92;86.38
38038;BME280;23843;51.320;12.340;2022-11-25T11:04:50;100451.75;;;9.96;86.61
38038;BME280;23843;51.320;12.340;2022-11-25T11:07:18;100448.78;;;10.02;87.33
38038;BME280;23843;51.320;12.340;2022-11-25T11:09:44;100443.38;;;10.05;86.61
38038;BME280;23843;51.320;12.340;2022-11-25T11:12:15;100448.66;;;10.05;84.33
38038;BME280;23843;51.320;12.340;2022-11-25T11:14:42;100439.84;;;10.04;84.25
38038;BME280;23843;51.320;12.340;2022-11-25T11:17:26;100447.41;;;10.12;85.72
38038;BME280;23843;51.320;12.340;2022-11-25T11:20:03;100444.38;;;10.20;87.40
38038;BME280;23843;51.320;12.340;2022-11-25T11:22:45;100448.94;;;10.16;85.63
38038;BME280;23843;51.320;12.340;2022-11-25T11:25:24;100441.34;;;10.10;84.73
38038;BME280;23843;51.320;12.340;2022-11-25T11:27:50;100441.78;;;10.01;84.09
38038;BME280;23843;51.320;12.340;2022-11-25T11:30:17;100443.50;;;10.02;83.92
38038;BME280;23843;51.320;12.340;2022-11-25T11:32:53;100441.47;;;10.07;85.09
38038;BME280;23843;51.320;12.340;2022-11-25T11:35:23;100432.28;;;10.14;86.25
38038;BME280;23843;51.320;12.340;2022-11-25T11:37:58;100438.97;;;10.21;84.98
38038;BME280;23843;51.320;12.340;2022-11-25T11:40:36;100427.47;;;10.22;85.13
38038;BME280;23843;51.320;12.340;2022-11-25T11:43:21;100428.97;;;10.28;84.71
38038;BME280;23843;51.320;12.340;2022-11-25T11:46:03;100424.53;;;10.28;84.52
38038;BME280;23843;51.320;12.340;2022-11-25T11:48:37;100418.81;;;10.36;85.04
38038;BME280;23843;51.320;12.340;2022-11-25T11:51:11;100419.84;;;10.34;84.15
38038;BME280;23843;51.320;12.340;2022-11-25T11:53:46;100415.31;;;10.36;83.36
38038;BME280;23843;51.320;12.340;2022-11-25T11:56:18;100418.94;;;10.35;83.56
38038;BME280;23843;51.320;12.340;2022-11-25T11:59:10;100414.41;;;10.37;84.55
38038;BME280;23843;51.320;12.340;2022-11-25T12:01:47;100418.69;;;10.39;85.52
38038;BME280;23843;51.320;12.340;2022-11-25T12:04:20;100416.72;;;10.43;86.74
38038;BME280;23843;51.320;12.340;2022-11-25T12:06:57;100418.09;;;10.50;86.02
38038;BME280;23843;51.320;12.340;2022-11-25T12:09:28;100411.91;;;10.51;84.14
38038;BME280;23843;51.320;12.340;2022-11-25T12:12:01;100422.31;;;10.54;84.66
38038;BME280;23843;51.320;12.340;2022-11-25T12:14:33;100418.66;;;10.57;85.07
38038;BME280;23843;51.320;12.340;2022-11-25T12:17:01;100419.75;;;10.53;81.82
38038;BME280;23843;51.320;12.340;2022-11-25T12:19:37;100419.13;;;10.47;80.71
38038;BME280;23843;51.320;12.340;2022-11-25T12:22:06;100425.28;;;10.48;84.75
38038;BME280;23843;51.320;12.340;2022-11-25T12:24:40;100422.22;;;10.56;84.95
38038;BME280;23843;51.320;12.340;2022-11-25T12:27:11;100410.59;;;10.58;85.22
38038;BME280;23843;51.320;12.340;2022-11-25T12:29:42;100413.59;;;10.52;83.12
38038;BME280;23843;51.320;12.340;2022-11-25T12:32:28;100410.94;;;10.52;83.59
38038;BME280;23843;51.320;12.340;2022-11-25T12:35:00;100416.25;;;10.52;83.14
38038;BME280;23843;51.320;12.340;2022-11-25T12:37:31;100410.50;;;10.44;81.72
38038;BME280;23843;51.320;12.340;2022-11-25T12:40:04;100421.09;;;10.44;83.13
38038;BME280;23843;51.320;12.340;2022-11-25T12:42:32;100419.47;;;10.41;82.70
38038;BME280;23843;51.320;12.340;2022-11-25T12:45:04;100411.03;;;10.33;82.45
38038;BME280;23843;51.320;12.340;2022-11-25T12:47:31;100413.13;;;10.26;82.79
38038;BME280;23843;51.320;12.340;2022-11-25T12:49:57;100415.31;;;10.18;82.58
38038;BME280;23843;51.320;12.340;2022-11-25T12:52:41;100417.19;;;10.16;83.54
38038;BME280;23843;51.320;12.340;2022-11-25T12:55:15;100419.81;;;10.16;83.93
38038;BME280;23843;51.320;12.340;2022-11-25T12:58:20;100417.66;;;10.24;85.34
38038;BME280;23843;51.320;12.340;2022-11-25T13:04:18;100421.56;;;10.17;83.37
38038;BME280;23843;51.320;12.340;2022-11-25T13:07:05;100426.91;;;10.16;83.72
38038;BME280;23843;51.320;12.340;2022-11-25T13:12:45;100432.78;;;10.05;83.21
38038;BME280;23843;51.320;12.340;2022-11-25T13:15:25;100436.28;;;10.05;83.46
38038;BME280;23843;51.320;12.340;2022-11-25T13:17:55;100429.19;;;10.06;85.03
38038;BME280;23843;51.320;12.340;2022-11-25T13:20:32;100432.63;;;10.08;85.34
38038;BME280;23843;51.320;12.340;2022-11-25T13:23:05;100433.53;;;10.07;83.63
38038;BME280;23843;51.320;12.340;2022-11-25T13:25:32;100437.91;;;10.08;84.28
38038;BME280;23843;51.320;12.340;2022-11-25T13:28:00;100437.13;;;10.06;84.32
38038;BME280;23843;51.320;12.340;2022-11-25T13:30:35;100437.84;;;10.10;85.51
38038;BME280;23843;51.320;12.340;2022-11-25T13:36:15;100439.31;;;10.15;85.28
38038;BME280;23843;51.320;12.340;2022-11-25T13:38:57;100442.56;;;10.20;85.25
38038;BME280;23843;51.320;12.340;2022-11-25T13:41:35;100448.66;;;10.22;84.38
38038;BME280;23843;51.320;12.340;2022-11-25T13:44:08;100447.81;;;10.22;85.06
38038;BME280;23843;51.320;12.340;2022-11-25T13:46:40;100451.28;;;10.22;84.74
38038;BME280;23843;51.320;12.340;2022-11-25T13:49:26;100455.66;;;10.23;84.77
38038;BME280;23843;51.320;12.340;2022-11-25T13:51:54;100457.22;;;10.27;85.46
38038;BME280;23843;51.320;12.340;2022-11-25T13:54:25;100465.97;;;10.30;85.44
38038;BME280;23843;51.320;12.340;2022-11-25T13:57:17;100477.41;;;10.30;85.18
38038;BME280;23843;51.320;12.340;2022-11-25T13:59:54;100477.41;;;10.30;85.13
38038;BME280;23843;51.320;12.340;2022-11-25T14:02:37;100480.13;;;10.28;85.74
38038;BME280;23843;51.320;12.340;2022-11-25T14:05:29;100485.56;;;10.25;86.00
38038;BME280;23843;51.320;12.340;2022-11-25T14:08:12;100490.06;;;10.23;87.46
38038;BME280;23843;51.320;12.340;2022-11-25T14:10:44;100487.66;;;10.19;86.97
38038;BME280;23843;51.320;12.340;2022-11-25T14:13:29;100494.13;;;10.13;88.30
38038;BME280;23843;51.320;12.340;2022-11-25T14:16:11;100500.41;;;10.11;89.23
38038;BME280;23843;51.320;12.340;2022-11-25T14:18:50;100500.25;;;10.14;89.78
38038;BME280;23843;51.320;12.340;2022-11-25T14:21:31;100502.69;;;10.18;89.98
38038;BME280;23843;51.320;12.340;2022-11-25T14:24:20;100506.97;;;10.21;89.80
38038;BME280;23843;51.320;12.340;2022-11-25T14:26:50;100512.34;;;10.19;89.99
38038;BME280;23843;51.320;12.340;2022-11-25T14:29:19;100513.22;;;10.20;90.25
38038;BME280;23843;51.320;12.340;2022-11-25T14:31:49;100521.22;;;10.18;90.33
38038;BME280;23843;51.320;12.340;2022-11-25T14:34:19;100520.38;;;10.18;90.24
38038;BME280;23843;51.320;12.340;2022-11-25T14:36:49;100523.84;;;10.18;90.70
38038;BME280;23843;51.320;12.340;2022-11-25T14:39:20;100528.53;;;10.13;90.74
38038;BME280;23843;51.320;12.340;2022-11-25T14:41:53;100528.59;;;10.12;91.41
38038;BME280;23843;51.320;12.340;2022-11-25T14:44:25;100537.41;;;10.12;91.36
38038;BME280;23843;51.320;12.340;2022-11-25T14:46:55;100538.34;;;10.11;91.78
38038;BME280;23843;51.320;12.340;2022-11-25T14:49:20;100548.28;;;10.06;91.85
38038;BME280;23843;51.320;12.340;2022-11-25T14:51:47;100546.72;;;10.02;92.23
38038;BME280;23843;51.320;12.340;2022-11-25T14:54:13;100552.09;;;10.00;92.64
38038;BME280;23843;51.320;12.340;2022-11-25T14:56:39;100554.81;;;9.99;92.98
38038;BME280;23843;51.320;12.340;2022-11-25T14:59:07;100554.81;;;9.99;92.94
38038;BME280;23843;51.320;12.340;2022-11-25T15:01:34;100558.69;;;9.92;93.62
38038;BME280;23843;51.320;12.340;2022-11-25T15:04:03;100562.50;;;9.86;93.85
38038;BME280;23843;51.320;12.340;2022-11-25T15:06:32;100564.41;;;9.82;94.10
38038;BME280;23843;51.320;12.340;2022-11-25T15:08:58;100565.50;;;9.78;94.78
38038;BME280;23843;51.320;12.340;2022-11-25T15:11:27;100561.34;;;9.73;95.47
38038;BME280;23843;51.320;12.340;2022-11-25T15:13:57;100568.63;;;9.68;96.33
38038;BME280;23843;51.320;12.340;2022-11-25T15:16:30;100573.22;;;9.64;96.24
38038;BME280;23843;51.320;12.340;2022-11-25T15:18:59;100569.09;;;9.58;97.34
38038;BME280;23843;51.320;12.340;2022-11-25T15:21:29;100573.81;;;9.52;98.45
38038;BME280;23843;51.320;12.340;2022-11-25T15:23:55;100572.31;;;9.46;99.06
38038;BME280;23843;51.320;12.340;2022-11-25T15:26:23;100576.88;;;9.42;99.57
38038;BME280;23843;51.320;12.340;2022-11-25T15:28:52;100579.72;;;9.38;99.94
38038;BME280;23843;51.320;12.340;2022-11-25T15:31:20;100586.00;;;9.35;100.00
38038;BME280;23843;51.320;12.340;2022-11-25T15:33:46;100586.06;;;9.34;100.00
38038;BME280;23843;51.320;12.340;2022-11-25T15:36:12;100591.22;;;9.37;100.00
38038;BME280;23843;51.320;12.340;2022-11-25T15:38:41;100589.44;;;9.37;100.00
38038;BME280;23843;51.320;12.340;2022-11-25T15:41:19;100593.94;;;9.35;100.00
38038;BME280;23843;51.320;12.340;2022-11-25T15:43:46;100596.63;;;9.34;100.00
38038;BME280;23843;51.320;12.340;2022-11-25T15:46:12;100593.13;;;9.33;100.00
38038;BME280;23843;51.320;12.340;2022-11-25T15:48:40;100596.56;;;9.35;100.00
38038;BME280;23843;51.320;12.340;2022-11-25T15:51:19;100594.00;;;9.34;100.00
38038;BME280;23843;51.320;12.340;2022-11-25T15:53:51;100601.88;;;9.35;100.00
38038;BME280;23843;51.320;12.340;2022-11-25T15:56:20;100597.31;;;9.39;100.00
38038;BME280;23843;51.320;12.340;2022-11-25T15:58:46;100593.72;;;9.40;99.91
38038;BME280;23843;51.320;12.340;2022-11-25T16:01:20;100602.38;;;9.43;99.59
38038;BME280;23843;51.320;12.340;2022-11-25T16:03:47;100602.47;;;9.42;99.49
38038;BME280;23843;51.320;12.340;2022-11-25T16:06:19;100607.22;;;9.34;100.00
38038;BME280;23843;51.320;12.340;2022-11-25T16:08:51;100605.72;;;9.28;100.00
38038;BME280;23843;51.320;12.340;2022-11-25T16:11:17;100602.41;;;9.23;100.00
38038;BME280;23843;51.320;12.340;2022-11-25T16:13:43;100599.72;;;9.25;100.00
38038;BME280;23843;51.320;12.340;2022-11-25T16:16:20;100608.69;;;9.20;100.00
38038;BME280;23843;51.320;12.340;2022-11-25T16:19:02;100601.72;;;9.19;100.00
38038;BME280;23843;51.320;12.340;2022-11-25T16:21:38;100601.13;;;9.13;100.00
38038;BME280;23843;51.320;12.340;2022-11-25T16:24:13;100604.81;;;9.09;100.00
38038;BME280;23843;51.320;12.340;2022-11-25T16:26:48;100619.16;;;9.03;100.00
38038;BME280;23843;51.320;12.340;2022-11-25T16:29:16;100613.22;;;8.98;100.00
38038;BME280;23843;51.320;12.340;2022-11-25T16:31:42;100618.66;;;8.95;100.00
38038;BME280;23843;51.320;12.340;2022-11-25T16:34:12;100623.00;;;8.96;100.00
38038;BME280;23843;51.320;12.340;2022-11-25T16:36:38;100620.16;;;9.00;100.00
38038;BME280;23843;51.320;12.340;2022-11-25T16:39:03;100612.88;;;9.06;100.00
38038;BME280;23843;51.320;12.340;2022-11-25T16:41:30;100624.16;;;9.09;100.00
38038;BME280;23843;51.320;12.340;2022-11-25T16:43:56;100629.44;;;9.09;100.00
38038;BME280;23843;51.320;12.340;2022-11-25T16:46:22;100625.16;;;9.07;100.00
38038;BME280;23843;51.320;12.340;2022-11-25T16:48:47;100630.59;;;9.04;100.00
38038;BME280;23843;51.320;12.340;2022-11-25T16:51:14;100630.78;;;8.99;100.00
38038;BME280;23843;51.320;12.340;2022-11-25T16:53:39;100637.06;;;8.96;100.00
38038;BME280;23843;51.320;12.340;2022-11-25T16:56:10;100637.91;;;8.97;100.00
38038;BME280;23843;51.320;12.340;2022-11-25T16:58:37;100632.63;;;8.97;100.00
38038;BME280;23843;51.320;12.340;2022-11-25T17:01:03;100634.56;;;8.93;100.00
38038;BME280;23843;51.320;12.340;2022-11-25T17:03:28;100638.84;;;8.96;100.00
38038;BME280;23843;51.320;12.340;2022-11-25T17:05:54;100640.50;;;8.98;100.00
38038;BME280;23843;51.320;12.340;2022-11-25T17:08:19;100644.13;;;8.96;100.00
38038;BME280;23843;51.320;12.340;2022-11-25T17:10:45;100645.91;;;8.95;100.00
38038;BME280;23843;51.320;12.340;2022-11-25T17:13:15;100645.91;;;8.95;100.00
38038;BME280;23843;51.320;12.340;2022-11-25T17:15:43;100649.59;;;8.91;100.00
38038;BME280;23843;51.320;12.340;2022-11-25T17:18:11;100646.97;;;8.91;100.00
38038;BME280;23843;51.320;12.340;2022-11-25T17:20:38;100646.91;;;8.93;100.00
38038;BME280;23843;51.320;12.340;2022-11-25T17:23:10;100654.88;;;8.91;100.00
38038;BME280;23843;51.320;12.340;2022-11-25T17:25:36;100657.72;;;8.87;100.00
38038;BME280;23843;51.320;12.340;2022-11-25T17:28:02;100655.41;;;8.79;100.00
38038;BME280;23843;51.320;12.340;2022-11-25T17:30:27;100670.47;;;8.77;100.00
38038;BME280;23843;51.320;12.340;2022-11-25T17:32:57;100674.84;;;8.78;100.00
38038;BME280;23843;51.320;12.340;2022-11-25T17:35:25;100678.34;;;8.78;100.00
38038;BME280;23843;51.320;12.340;2022-11-25T17:37:50;100682.69;;;8.79;100.00
38038;BME280;23843;51.320;12.340;2022-11-25T17:40:16;100684.50;;;8.77;100.00
38038;BME280;23843;51.320;12.340;2022-11-25T17:42:41;100693.25;;;8.79;100.00
38038;BME280;23843;51.320;12.340;2022-11-25T17:45:11;100688.94;;;8.77;100.00
38038;BME280;23843;51.320;12.340;2022-11-25T17:47:37;100697.69;;;8.79;100.00
38038;BME280;23843;51.320;12.340;2022-11-25T17:50:15;100700.31;;;8.79;100.00
38038;BME280;23843;51.320;12.340;2022-11-25T17:52:41;100700.31;;;8.79;100.00
38038;BME280;23843;51.320;12.340;2022-11-25T17:55:07;100701.25;;;8.78;100.00
38038;BME280;23843;51.320;12.340;2022-11-25T17:57:33;100703.75;;;8.81;100.00
38038;BME280;23843;51.320;12.340;2022-11-25T17:59:59;100703.09;;;8.76;100.00
38038;BME280;23843;51.320;12.340;2022-11-25T18:02:24;100711.91;;;8.75;100.00
38038;BME280;23843;51.320;12.340;2022-11-25T18:04:50;100711.81;;;8.78;100.00
38038;BME280;23843;51.320;12.340;2022-11-25T18:07:17;100720.50;;;8.80;100.00
38038;BME280;23843;51.320;12.340;2022-11-25T18:09:43;100721.50;;;8.77;100.00
38038;BME280;23843;51.320;12.340;2022-11-25T18:12:13;100722.47;;;8.75;100.00
38038;BME280;23843;51.320;12.340;2022-11-25T18:14:39;100735.88;;;8.70;100.00
38038;BME280;23843;51.320;12.340;2022-11-25T18:17:06;100731.72;;;8.65;100.00
38038;BME280;23843;51.320;12.340;2022-11-25T18:19:32;100738.91;;;8.61;100.00
38038;BME280;23843;51.320;12.340;2022-11-25T18:21:59;100740.63;;;8.62;100.00
38038;BME280;23843;51.320;12.340;2022-11-25T18:24:26;100746.88;;;8.60;100.00
38038;BME280;23843;51.320;12.340;2022-11-25T18:26:52;100745.94;;;8.61;100.00
38038;BME280;23843;51.320;12.340;2022-11-25T18:29:20;100744.19;;;8.61;100.00
38038;BME280;23843;51.320;12.340;2022-11-25T18:31:47;100746.88;;;8.60;100.00
38038;BME280;23843;51.320;12.340;2022-11-25T18:34:13;100749.66;;;8.56;100.00
38038;BME280;23843;51.320;12.340;2022-11-25T18:36:41;100759.28;;;8.57;100.00
38038;BME280;23843;51.320;12.340;2022-11-25T18:39:06;100761.91;;;8.57;100.00